Terminal Aerodrome Forecast
Issued by NWS Medford, OR

Home | Current Version | Previous Version | Text Only | Print | Product List | Glossary On
Versions: 1 2 3 4 5 6 7 8 9 10 11 12 13 14 15 16 17 18 19
000
FTUS46 KMFR 272338
TAFMFR
TAF
KMFR 272338Z 2800/2824 VRB03KT P6SM SCT005 SCT100 BKN250
     FM280800 00000KT 1/2SM FG OVC002
     FM281800 00000KT P6SM OVC005
     FM282000 00000KT P6SM FEW020 BKN250=

USA.gov is the U.S. government's official web portal to all federal, state and local government web resources and services.